createdAt,value
2022-11-18T00:01:08.373Z,3.81
2022-11-18T00:04:10.993Z,3.87
2022-11-18T00:07:13.677Z,3.77
2022-11-18T00:10:16.756Z,3.80
2022-11-18T00:13:37.527Z,3.91
2022-11-18T00:16:41.555Z,3.61
2022-11-18T00:19:44.163Z,3.59
2022-11-18T00:22:47.410Z,3.73
2022-11-18T00:25:50.073Z,3.66
2022-11-18T00:28:52.714Z,3.62
2022-11-18T00:31:56.792Z,3.63
2022-11-18T00:34:59.434Z,3.77
2022-11-18T00:38:02.066Z,3.69
2022-11-18T00:41:06.579Z,3.52
2022-11-18T00:44:09.646Z,3.05
2022-11-18T00:47:13.758Z,3.55
2022-11-18T00:50:16.802Z,3.57
2022-11-18T00:53:21.295Z,3.65
2022-11-18T00:56:23.954Z,3.70
2022-11-18T00:59:26.885Z,3.55
2022-11-18T01:02:30.855Z,3.64
2022-11-18T01:05:33.559Z,3.72
2022-11-18T01:08:36.733Z,3.54
2022-11-18T01:11:53.268Z,3.38
2022-11-18T01:14:55.929Z,3.03
2022-11-18T01:17:59.919Z,3.35
2022-11-18T01:21:03.916Z,3.14
2022-11-18T01:24:07.414Z,3.38
2022-11-18T01:27:10.053Z,3.52
2022-11-18T01:30:13.846Z,3.64
2022-11-18T01:33:17.806Z,3.27
2022-11-18T01:36:22.166Z,3.33
2022-11-18T01:39:24.803Z,3.38
2022-11-18T01:42:27.432Z,3.33
2022-11-18T01:45:34.356Z,2.94
2022-11-18T01:48:39.173Z,3.18
2022-11-18T01:51:47.929Z,3.32
2022-11-18T01:54:56.749Z,3.41
2022-11-18T01:58:11.882Z,3.19
2022-11-18T02:01:15.132Z,3.23
2022-11-18T02:04:19.264Z,3.30
2022-11-18T02:07:23.420Z,3.49
2022-11-18T02:10:26.135Z,3.43
2022-11-18T02:13:29.004Z,3.35
2022-11-18T02:16:44.010Z,3.38
2022-11-18T02:20:13.663Z,3.40
2022-11-18T02:23:47.163Z,3.28
2022-11-18T02:27:31.962Z,2.78
2022-11-18T02:30:44.256Z,3.04
2022-11-18T02:33:55.683Z,3.07
2022-11-18T02:37:04.945Z,3.05
2022-11-18T02:40:14.661Z,3.39
2022-11-18T02:43:22.619Z,3.37
2022-11-18T02:46:30.926Z,3.08
2022-11-18T02:49:38.942Z,2.89
2022-11-18T02:52:43.936Z,3.27
2022-11-18T02:55:47.828Z,3.26
2022-11-18T02:58:50.533Z,3.04
2022-11-18T03:01:55.066Z,2.93
2022-11-18T03:04:59.607Z,3.30
2022-11-18T03:08:08.313Z,3.18
2022-11-18T03:11:17.796Z,3.11
2022-11-18T03:14:26.122Z,3.26
2022-11-18T03:17:40.445Z,3.14
2022-11-18T03:20:48.834Z,3.17
2022-11-18T03:23:58.208Z,3.36
2022-11-18T03:27:07.835Z,3.34
2022-11-18T03:30:16.711Z,3.50
2022-11-18T03:33:25.949Z,3.37
2022-11-18T03:36:33.779Z,3.29
2022-11-18T03:39:40.880Z,3.50
2022-11-18T03:42:47.364Z,3.41
2022-11-18T03:45:53.544Z,3.23
2022-11-18T03:48:59.969Z,3.37
2022-11-18T03:52:11.917Z,3.23
2022-11-18T03:55:17.954Z,3.21
2022-11-18T03:58:26.454Z,3.32
2022-11-18T04:01:36.856Z,3.26
2022-11-18T04:04:42.132Z,3.25
2022-11-18T04:07:53.502Z,3.22
2022-11-18T04:11:03.057Z,3.43
2022-11-18T04:14:08.377Z,3.32
2022-11-18T04:17:13.171Z,3.31
2022-11-18T04:20:20.576Z,3.30
2022-11-18T04:23:23.417Z,3.11
2022-11-18T04:26:26.028Z,2.90
2022-11-18T04:29:28.715Z,3.23
2022-11-18T04:32:31.313Z,3.31
2022-11-18T04:35:35.298Z,3.37
2022-11-18T04:38:37.946Z,3.35
2022-11-18T04:41:58.628Z,3.30
2022-11-18T04:45:01.355Z,3.25
2022-11-18T04:48:04.118Z,3.23
2022-11-18T04:51:08.246Z,3.27
2022-11-18T04:54:11.900Z,3.39
2022-11-18T04:57:15.001Z,3.25
2022-11-18T05:00:18.605Z,3.22
2022-11-18T05:03:21.256Z,3.07
2022-11-18T05:06:25.297Z,3.14
2022-11-18T05:09:31.806Z,3.19
2022-11-18T05:12:49.105Z,3.01
2022-11-18T05:15:51.716Z,3.29
2022-11-18T05:18:54.349Z,2.71
2022-11-18T05:21:58.590Z,3.14
2022-11-18T05:25:01.214Z,3.07
2022-11-18T05:28:03.938Z,3.03
2022-11-18T05:31:08.243Z,3.24
2022-11-18T05:34:10.895Z,3.10
2022-11-18T05:37:15.033Z,3.06
2022-11-18T05:40:18.432Z,3.06
2022-11-18T05:43:20.100Z,2.87
2022-11-18T05:46:22.689Z,3.28
2022-11-18T05:49:25.543Z,2.80
2022-11-18T05:52:29.483Z,3.02
2022-11-18T05:55:39.516Z,3.01
2022-11-18T05:58:42.153Z,2.99
2022-11-18T06:01:47.678Z,3.00
2022-11-18T06:04:54.246Z,3.12
2022-11-18T06:07:59.249Z,3.11
2022-11-18T06:11:02.232Z,2.89
2022-11-18T06:14:09.125Z,3.11
2022-11-18T06:17:16.332Z,3.08
2022-11-18T06:20:20.513Z,2.94
2022-11-18T06:23:24.821Z,3.22
2022-11-18T06:26:28.378Z,3.20
2022-11-18T06:29:31.960Z,3.19
2022-11-18T06:32:34.602Z,3.20
2022-11-18T06:35:37.443Z,2.89
2022-11-18T06:38:41.404Z,2.94
2022-11-18T06:41:44.064Z,2.57
2022-11-18T06:44:46.848Z,2.91
2022-11-18T06:47:49.543Z,2.64
2022-11-18T06:50:52.136Z,2.67
2022-11-18T06:53:56.368Z,2.87
2022-11-18T06:56:59.037Z,3.01
2022-11-18T07:00:02.520Z,2.99
2022-11-18T07:03:05.462Z,2.91
2022-11-18T07:06:08.695Z,3.14
2022-11-18T07:09:12.764Z,2.76
2022-11-18T07:12:15.384Z,2.88
2022-11-18T07:15:18.181Z,2.90
2022-11-18T07:18:20.793Z,2.74
2022-11-18T07:21:24.973Z,2.80
2022-11-18T07:24:28.979Z,2.76
2022-11-18T07:27:31.617Z,3.08
2022-11-18T07:30:34.236Z,2.89
2022-11-18T07:33:37.488Z,2.75
2022-11-18T07:36:40.107Z,2.29
2022-11-18T07:39:44.115Z,2.74
2022-11-18T07:42:46.722Z,2.80
2022-11-18T07:45:49.309Z,2.88
2022-11-18T07:48:55.284Z,2.83
2022-11-18T07:51:57.948Z,2.43
2022-11-18T07:55:01.916Z,2.73
2022-11-18T07:58:04.544Z,2.82
2022-11-18T08:01:11.503Z,2.87
2022-11-18T08:04:15.204Z,2.48
2022-11-18T08:07:17.990Z,2.82
2022-11-18T08:10:22.004Z,2.84
2022-11-18T08:13:24.755Z,2.70
2022-11-18T08:16:27.998Z,2.72
2022-11-18T08:19:30.618Z,2.86
2022-11-18T08:22:33.337Z,2.93
2022-11-18T08:25:37.302Z,2.98
2022-11-18T08:28:40.204Z,2.77
2022-11-18T08:31:42.877Z,2.33
2022-11-18T08:34:45.488Z,2.76
2022-11-18T08:37:48.091Z,2.75
2022-11-18T08:40:52.055Z,2.97
2022-11-18T08:43:54.662Z,2.86
2022-11-18T08:46:57.298Z,3.06
2022-11-18T08:49:59.987Z,3.18
2022-11-18T08:53:02.665Z,2.84
2022-11-18T08:56:07.260Z,3.00
2022-11-18T08:59:10.238Z,3.10
2022-11-18T09:02:14.953Z,3.15
2022-11-18T09:05:17.657Z,3.13
2022-11-18T09:08:21.836Z,3.26
2022-11-18T09:11:27.259Z,3.12
2022-11-18T09:15:12.274Z,3.25
2022-11-18T09:17:52.745Z,2.96
2022-11-18T09:20:56.491Z,3.21
2022-11-18T09:23:59.147Z,3.06
2022-11-18T09:27:05.436Z,3.07
2022-11-18T09:30:09.167Z,3.34
2022-11-18T09:33:14.395Z,3.26
2022-11-18T09:36:22.328Z,3.04
2022-11-18T09:39:25.818Z,3.33
2022-11-18T09:42:45.793Z,3.34
2022-11-18T09:45:53.673Z,3.16
2022-11-18T09:49:13.689Z,3.06
2022-11-18T09:52:19.695Z,3.28
2022-11-18T09:55:23.016Z,3.36
2022-11-18T09:58:34.805Z,3.03
2022-11-18T10:01:37.948Z,3.22
2022-11-18T10:04:40.750Z,2.94
2022-11-18T10:07:50.622Z,3.16
2022-11-18T10:11:01.681Z,2.96
2022-11-18T10:14:19.011Z,3.06
2022-11-18T10:17:33.658Z,3.27
2022-11-18T10:20:49.181Z,3.14
2022-11-18T10:23:54.170Z,3.09
2022-11-18T10:26:58.396Z,3.28
2022-11-18T10:30:02.547Z,3.28
2022-11-18T10:33:19.103Z,3.50
2022-11-18T10:36:28.699Z,3.70
2022-11-18T10:39:31.476Z,3.62
2022-11-18T10:42:38.702Z,3.45
2022-11-18T10:45:42.912Z,3.56
2022-11-18T10:48:45.620Z,3.67
2022-11-18T10:51:50.160Z,3.58
2022-11-18T10:55:21.910Z,3.62
2022-11-18T10:58:25.435Z,3.33
2022-11-18T11:01:30.073Z,3.28
2022-11-18T11:04:32.831Z,3.45
2022-11-18T11:07:36.515Z,3.17
2022-11-18T11:10:39.207Z,3.22
2022-11-18T11:13:45.483Z,3.24
2022-11-18T11:17:01.181Z,3.32
2022-11-18T11:20:11.421Z,3.25
2022-11-18T11:23:22.125Z,3.21
2022-11-18T11:30:08.794Z,3.53
2022-11-18T11:33:23.049Z,3.29
2022-11-18T11:36:44.916Z,3.38
2022-11-18T11:40:03.911Z,3.86
2022-11-18T11:43:20.266Z,3.77
2022-11-18T11:46:32.303Z,3.60
2022-11-18T11:49:46.640Z,4.00
2022-11-18T11:53:01.946Z,4.23
2022-11-18T11:56:15.144Z,3.86
2022-11-18T11:59:29.033Z,3.95
2022-11-18T12:02:48.733Z,4.09
2022-11-18T12:05:52.754Z,4.09
2022-11-18T12:09:04.706Z,4.25
2022-11-18T12:12:27.363Z,4.18
2022-11-18T12:15:44.974Z,4.13
2022-11-18T12:18:51.967Z,4.35
2022-11-18T12:22:03.881Z,4.38
2022-11-18T12:25:56.517Z,4.17
2022-11-18T12:29:24.120Z,4.44
2022-11-18T12:32:30.175Z,4.39
2022-11-18T12:35:33.885Z,4.34
2022-11-18T12:38:37.944Z,4.38
2022-11-18T12:42:11.760Z,4.35
2022-11-18T12:45:49.232Z,4.33
2022-11-18T12:48:51.872Z,3.99
2022-11-18T12:51:55.857Z,4.27
2022-11-18T12:55:02.168Z,4.41
2022-11-18T12:58:04.909Z,4.35
2022-11-18T13:01:11.623Z,4.37
2022-11-18T13:04:17.694Z,4.27
2022-11-18T13:07:38.270Z,4.26
2022-11-18T13:10:53.166Z,4.31
2022-11-18T13:14:11.237Z,4.23
2022-11-18T13:17:48.485Z,4.27
2022-11-18T13:20:58.649Z,4.26
2022-11-18T13:24:01.107Z,4.15
2022-11-18T13:27:05.701Z,4.13
2022-11-18T13:30:13.314Z,4.01
2022-11-18T13:33:15.975Z,4.01
2022-11-18T13:36:20.053Z,4.06
2022-11-18T13:39:25.389Z,3.98
2022-11-18T13:42:31.555Z,3.96
2022-11-18T13:45:35.650Z,3.91
2022-11-18T13:48:46.778Z,3.93
2022-11-18T13:51:51.521Z,3.89
2022-11-18T13:54:56.877Z,3.71
2022-11-18T13:58:04.549Z,3.91
2022-11-18T14:01:16.168Z,3.87
2022-11-18T14:04:21.635Z,3.87
2022-11-18T14:07:28.231Z,3.93
2022-11-18T14:10:36.720Z,3.82
2022-11-18T14:13:54.504Z,3.78
2022-11-18T14:17:06.075Z,3.77
2022-11-18T14:20:17.388Z,3.73
2022-11-18T14:23:23.987Z,3.67
2022-11-18T14:26:31.139Z,3.60
2022-11-18T14:29:35.128Z,3.58
2022-11-18T14:32:37.742Z,3.51
2022-11-18T14:35:41.023Z,3.43
2022-11-18T14:42:13.724Z,3.52
2022-11-18T14:45:17.893Z,3.51
2022-11-18T14:48:25.233Z,3.47
2022-11-18T14:51:31.050Z,3.46
2022-11-18T14:54:34.164Z,3.42
2022-11-18T14:57:36.894Z,3.46
2022-11-18T15:00:41.314Z,3.37
2022-11-18T15:03:44.075Z,3.32
2022-11-18T15:06:46.691Z,3.35
2022-11-18T15:09:49.476Z,3.27
2022-11-18T15:12:52.086Z,3.29
2022-11-18T15:15:56.577Z,3.20
2022-11-18T15:19:00.760Z,3.29
2022-11-18T15:22:03.392Z,3.35
2022-11-18T15:25:06.698Z,3.32
2022-11-18T15:28:10.795Z,3.27
2022-11-18T15:31:14.988Z,3.33
2022-11-18T15:34:20.052Z,3.30
2022-11-18T15:37:23.188Z,3.21
2022-11-18T15:40:25.804Z,3.20
2022-11-18T15:43:28.516Z,3.10
2022-11-18T15:46:33.583Z,3.07
2022-11-18T15:49:36.312Z,2.98
2022-11-18T15:52:39.007Z,2.99
2022-11-18T15:55:41.768Z,2.92
2022-11-18T15:58:44.391Z,3.03
2022-11-18T16:01:49.977Z,3.01
2022-11-18T16:04:52.606Z,2.96
2022-11-18T16:07:55.316Z,2.96
2022-11-18T16:11:15.900Z,2.87
2022-11-18T16:14:21.063Z,2.92
2022-11-18T16:17:25.279Z,2.81
2022-11-18T16:20:28.563Z,2.81
2022-11-18T16:23:31.185Z,2.82
2022-11-18T16:26:34.667Z,2.86
2022-11-18T16:29:37.420Z,2.80
2022-11-18T16:32:41.406Z,2.78
2022-11-18T16:35:48.170Z,2.74
2022-11-18T16:38:50.769Z,2.78
2022-11-18T16:41:54.973Z,2.92
2022-11-18T16:44:57.578Z,2.84
2022-11-18T16:48:01.829Z,2.85
2022-11-18T16:51:19.958Z,2.82
2022-11-18T16:54:24.158Z,2.77
2022-11-18T16:57:26.764Z,2.81
2022-11-18T17:00:59.892Z,2.70
2022-11-18T17:03:54.630Z,2.72
2022-11-18T17:06:59.694Z,2.76
2022-11-18T17:10:02.369Z,2.64
2022-11-18T17:13:05.009Z,2.66
2022-11-18T17:16:09.051Z,2.59
2022-11-18T17:19:15.999Z,2.57
2022-11-18T17:22:19.452Z,2.53
2022-11-18T17:25:22.077Z,2.55
2022-11-18T17:28:24.716Z,2.60
2022-11-18T17:31:27.766Z,2.61
2022-11-18T17:34:31.733Z,2.48
2022-11-18T17:37:34.404Z,2.55
2022-11-18T17:40:37.048Z,2.61
2022-11-18T17:43:39.735Z,2.65
2022-11-18T17:46:43.033Z,2.53
2022-11-18T17:49:47.008Z,2.46
2022-11-18T17:52:49.649Z,2.58
2022-11-18T17:55:52.255Z,2.43
2022-11-18T17:58:55.627Z,2.50
2022-11-18T18:01:59.887Z,2.47
2022-11-18T18:05:04.183Z,2.49
2022-11-18T18:08:09.865Z,2.47
2022-11-18T18:11:16.377Z,2.62
2022-11-18T18:14:19.293Z,2.59
2022-11-18T18:17:22.453Z,2.49
2022-11-18T18:20:27.117Z,2.49
2022-11-18T18:23:29.741Z,2.53
2022-11-18T18:26:32.669Z,2.53
2022-11-18T18:29:35.304Z,2.49
2022-11-18T18:32:37.923Z,2.44
2022-11-18T18:35:42.600Z,2.59
2022-11-18T18:38:45.971Z,2.59
2022-11-18T18:41:49.088Z,2.56
2022-11-18T18:45:08.264Z,2.54
2022-11-18T18:48:10.896Z,2.58
2022-11-18T18:51:15.230Z,2.63
2022-11-18T18:54:20.230Z,2.54
2022-11-18T18:57:23.104Z,2.56
2022-11-18T19:00:25.772Z,2.67
2022-11-18T19:03:28.386Z,2.55
2022-11-18T19:06:53.318Z,2.58
2022-11-18T19:09:57.192Z,2.55
2022-11-18T19:12:59.839Z,2.49
2022-11-18T19:16:05.922Z,2.53
2022-11-18T19:19:09.972Z,2.41
2022-11-18T19:22:15.745Z,2.36
2022-11-18T19:25:18.776Z,2.52
2022-11-18T19:28:21.401Z,2.52
2022-11-18T19:31:24.348Z,2.35
2022-11-18T19:34:26.989Z,2.35
2022-11-18T19:37:31.405Z,2.33
2022-11-18T19:40:34.028Z,2.26
2022-11-18T19:43:36.825Z,2.32
2022-11-18T19:46:39.435Z,2.21
2022-11-18T19:49:42.083Z,2.32
2022-11-18T19:52:48.433Z,2.33
2022-11-18T19:55:54.975Z,2.30
2022-11-18T19:58:58.951Z,2.28
2022-11-18T20:02:01.986Z,2.29
2022-11-18T20:05:22.369Z,2.25
2022-11-18T20:08:26.433Z,2.30
2022-11-18T20:11:29.095Z,2.19
2022-11-18T20:14:31.688Z,2.21
2022-11-18T20:17:34.322Z,2.15
2022-11-18T20:20:38.175Z,2.25
2022-11-18T20:23:42.381Z,2.06
2022-11-18T20:26:45.537Z,2.08
2022-11-18T20:29:48.145Z,2.11
2022-11-18T20:32:51.794Z,1.85
2022-11-18T20:35:54.696Z,1.99
2022-11-18T20:39:00.344Z,2.01
2022-11-18T20:42:20.597Z,2.01
2022-11-18T20:45:23.904Z,2.09
2022-11-18T20:48:26.537Z,2.11
2022-11-18T20:51:29.978Z,2.03
2022-11-18T20:54:34.560Z,2.06
2022-11-18T20:57:37.239Z,1.94
2022-11-18T21:00:40.094Z,1.96
2022-11-18T21:03:43.979Z,1.93
2022-11-18T21:06:47.340Z,1.82
2022-11-18T21:09:51.297Z,1.97
2022-11-18T21:13:11.559Z,1.87
2022-11-18T21:16:14.161Z,1.88
2022-11-18T21:19:17.130Z,1.89
2022-11-18T21:22:19.927Z,1.81
2022-11-18T21:25:23.895Z,1.80
2022-11-18T21:28:28.693Z,1.75
2022-11-18T21:31:32.521Z,1.76
2022-11-18T21:34:35.424Z,1.75
2022-11-18T21:37:38.135Z,1.72
2022-11-18T21:40:42.245Z,1.76
2022-11-18T21:44:04.379Z,1.70
2022-11-18T21:47:07.883Z,1.64
2022-11-18T21:50:11.247Z,1.72
2022-11-18T21:53:16.083Z,1.63
2022-11-18T21:56:22.009Z,1.66
2022-11-18T21:59:24.850Z,1.66
2022-11-18T22:02:27.486Z,1.63
2022-11-18T22:05:30.106Z,1.65
2022-11-18T22:08:33.004Z,1.56
2022-11-18T22:11:36.943Z,1.66
2022-11-18T22:14:39.544Z,1.76
2022-11-18T22:17:42.232Z,1.65
2022-11-18T22:20:44.855Z,1.61
2022-11-18T22:23:48.380Z,1.67
2022-11-18T22:26:52.379Z,1.56
2022-11-18T22:29:54.973Z,1.57
2022-11-18T22:32:57.602Z,1.48
2022-11-18T22:36:01.890Z,1.47
2022-11-18T22:39:04.503Z,1.34
2022-11-18T22:42:27.016Z,1.38
2022-11-18T22:45:29.689Z,1.36
2022-11-18T22:48:32.409Z,1.39
2022-11-18T22:51:35.210Z,1.40
2022-11-18T22:54:39.661Z,1.36
2022-11-18T22:57:45.171Z,1.21
2022-11-18T23:00:47.846Z,1.29
2022-11-18T23:03:52.880Z,1.24
2022-11-18T23:06:55.518Z,1.13
2022-11-18T23:09:58.170Z,1.23
2022-11-18T23:13:21.669Z,1.16
2022-11-18T23:16:24.996Z,1.15
2022-11-18T23:19:27.627Z,1.20
2022-11-18T23:22:30.250Z,1.08
2022-11-18T23:25:32.971Z,1.04
2022-11-18T23:28:37.519Z,1.15
2022-11-18T23:31:42.772Z,1.02
2022-11-18T23:34:45.411Z,1.08
2022-11-18T23:37:48.824Z,1.01
2022-11-18T23:40:55.297Z,0.96
2022-11-18T23:43:59.257Z,0.95
2022-11-18T23:47:01.904Z,0.96
2022-11-18T23:50:04.838Z,0.95
2022-11-18T23:53:07.446Z,0.80
2022-11-18T23:56:11.876Z,0.97
2022-11-18T23:59:15.884Z,0.89
